createdAt,value
2023-04-21T00:00:59.440Z,100.0
2023-04-21T00:06:31.140Z,100.0
2023-04-21T00:12:02.741Z,100.0
2023-04-21T00:17:34.642Z,100.0
2023-04-21T00:23:06.277Z,100.0
2023-04-21T00:28:37.935Z,100.0
2023-04-21T00:34:09.770Z,100.0
2023-04-21T00:39:41.432Z,100.0
2023-04-21T00:45:13.139Z,100.0
2023-04-21T00:50:44.943Z,100.0
2023-04-21T00:56:21.006Z,100.0
2023-04-21T01:01:52.779Z,100.0
2023-04-21T01:07:24.396Z,100.0
2023-04-21T01:12:56.160Z,100.0
2023-04-21T01:18:27.888Z,100.0
2023-04-21T01:23:59.583Z,100.0
2023-04-21T01:29:31.347Z,100.0
2023-04-21T01:35:03.139Z,100.0
2023-04-21T01:40:34.780Z,100.0
2023-04-21T01:46:06.617Z,100.0
2023-04-21T01:51:38.215Z,100.0
2023-04-21T01:57:14.315Z,100.0
2023-04-21T02:02:46.296Z,100.0
2023-04-21T02:08:17.887Z,100.0
2023-04-21T02:13:49.533Z,100.0
2023-04-21T02:19:21.943Z,100.0
2023-04-21T02:24:52.982Z,100.0
2023-04-21T02:30:24.795Z,100.0
2023-04-21T02:35:56.422Z,100.0
2023-04-21T02:41:28.122Z,100.0
2023-04-21T02:47:00.201Z,100.0
2023-04-21T02:52:31.652Z,100.0
2023-04-21T02:58:07.721Z,100.0
2023-04-21T03:03:39.596Z,100.0
2023-04-21T03:09:11.200Z,100.0
2023-04-21T03:14:42.959Z,100.0
2023-04-21T03:20:14.884Z,100.0
2023-04-21T03:25:46.508Z,100.0
2023-04-21T03:31:18.434Z,100.0
2023-04-21T03:36:49.782Z,100.0
2023-04-21T03:42:21.424Z,100.0
2023-04-21T03:47:53.255Z,100.0
2023-04-21T03:53:25.073Z,100.0
2023-04-21T03:59:03.083Z,100.0
2023-04-21T04:04:35.062Z,100.0
2023-04-21T04:10:07.197Z,100.0
2023-04-21T04:15:38.371Z,100.0
2023-04-21T04:21:10.011Z,100.0
2023-04-21T04:26:41.597Z,100.0
2023-04-21T04:32:13.462Z,100.0
2023-04-21T04:37:45.891Z,100.0
2023-04-21T04:43:16.887Z,100.0
2023-04-21T04:48:48.664Z,100.0
2023-04-21T04:54:20.760Z,100.0
2023-04-21T04:59:58.485Z,100.0
2023-04-21T05:05:30.110Z,100.0
2023-04-21T05:11:01.925Z,100.0
2023-04-21T05:16:33.728Z,100.0
2023-04-21T05:22:05.479Z,100.0
2023-04-21T05:27:37.031Z,100.0
2023-04-21T05:33:08.883Z,100.0
2023-04-21T05:38:40.456Z,100.0
2023-04-21T05:44:12.230Z,100.0
2023-04-21T05:49:43.975Z,100.0
2023-04-21T05:55:15.717Z,100.0
2023-04-21T06:00:51.965Z,100.0
2023-04-21T06:06:23.516Z,100.0
2023-04-21T06:11:55.241Z,100.0
2023-04-21T06:17:27.619Z,100.0
2023-04-21T06:22:58.680Z,100.0
2023-04-21T06:28:30.387Z,100.0
2023-04-21T06:34:02.066Z,100.0
2023-04-21T06:39:33.861Z,100.0
2023-04-21T06:45:05.639Z,100.0
2023-04-21T06:50:37.610Z,100.0
2023-04-21T06:56:09.074Z,100.0
2023-04-21T07:01:45.249Z,100.0
2023-04-21T07:07:16.919Z,100.0
2023-04-21T07:12:55.660Z,100.0
2023-04-21T07:18:27.077Z,100.0
2023-04-21T07:23:59.081Z,100.0
2023-04-21T07:29:30.477Z,100.0
2023-04-21T07:35:02.370Z,100.0
2023-04-21T07:40:34.013Z,100.0
2023-04-21T07:46:05.881Z,100.0
2023-04-21T07:51:37.478Z,100.0
2023-04-21T07:57:09.165Z,100.0
2023-04-21T08:02:45.511Z,100.0
2023-04-21T08:08:16.973Z,100.0
2023-04-21T08:13:48.802Z,100.0
2023-04-21T08:19:21.212Z,100.0
2023-04-21T08:24:52.741Z,100.0
2023-04-21T08:30:24.140Z,100.0
2023-04-21T08:36:15.290Z,97.8
2023-04-21T08:41:27.546Z,97.11
2023-04-21T08:46:59.029Z,97.93
2023-04-21T08:52:30.715Z,97.5
2023-04-21T08:58:02.608Z,95.87
2023-04-21T09:03:38.916Z,94.15
2023-04-21T09:09:10.335Z,94.88
2023-04-21T09:14:42.099Z,94.14
2023-04-21T09:20:13.825Z,96.74
2023-04-21T09:25:45.532Z,95.55
2023-04-21T09:31:18.007Z,94.6
2023-04-21T09:36:48.927Z,99.23
2023-04-21T09:42:20.854Z,93.23
2023-04-21T09:47:52.683Z,92.97
2023-04-21T09:53:24.504Z,92.24
2023-04-21T09:58:56.021Z,90.2
2023-04-21T10:04:34.623Z,91.33
2023-04-21T10:10:05.796Z,91.95
2023-04-21T10:15:37.487Z,90.99
2023-04-21T10:21:09.235Z,93.12
2023-04-21T10:26:41.503Z,90.57
2023-04-21T10:32:12.911Z,89.93
2023-04-21T10:37:44.458Z,90.35
2023-04-21T10:43:16.084Z,89.91
2023-04-21T10:48:47.819Z,91.19
2023-04-21T10:54:20.111Z,92.31
2023-04-21T10:59:51.308Z,90.52
2023-04-21T11:05:27.558Z,88.74
2023-04-21T11:10:59.056Z,89.16
2023-04-21T11:16:30.951Z,87.06
2023-04-21T11:22:02.616Z,89.58
2023-04-21T11:27:34.304Z,89.04
2023-04-21T11:33:06.130Z,86.19
2023-04-21T11:38:37.712Z,86.57
2023-04-21T11:44:09.414Z,84.3
2023-04-21T11:49:41.223Z,84.0
2023-04-21T11:55:12.886Z,84.45
2023-04-21T12:00:44.926Z,86.08
2023-04-21T12:06:20.834Z,82.93
2023-04-21T12:11:52.379Z,84.65
2023-04-21T12:17:24.283Z,80.72
2023-04-21T12:22:55.768Z,81.32
2023-04-21T12:28:27.570Z,80.3
2023-04-21T12:33:59.447Z,79.08
2023-04-21T12:39:31.953Z,81.32
2023-04-21T12:45:02.785Z,79.75
2023-04-21T12:50:34.424Z,79.95
2023-04-21T12:56:06.250Z,85.78
2023-04-21T13:01:38.025Z,80.55
2023-04-21T13:07:14.076Z,78.08
2023-04-21T13:12:46.364Z,78.08
2023-04-21T13:18:17.459Z,78.61
2023-04-21T13:23:49.639Z,78.5
2023-04-21T13:29:20.891Z,78.58
2023-04-21T13:34:52.714Z,77.72
2023-04-21T13:40:24.439Z,78.16
2023-04-21T13:45:56.144Z,74.81
2023-04-21T13:51:27.873Z,76.64
2023-04-21T13:56:59.611Z,77.24
2023-04-21T14:02:32.264Z,77.52
2023-04-21T14:08:09.403Z,82.87
2023-04-21T14:14:08.012Z,75.9
2023-04-21T14:19:12.944Z,74.55
2023-04-21T14:24:44.458Z,75.68
2023-04-21T14:30:16.319Z,77.27
2023-04-21T14:35:48.370Z,75.31
2023-04-21T14:41:19.804Z,75.56
2023-04-21T14:47:10.157Z,74.97
2023-04-21T14:52:23.951Z,77.36
2023-04-21T14:57:54.915Z,76.85
2023-04-21T15:03:27.289Z,75.89
2023-04-21T15:09:04.765Z,72.43
2023-04-21T15:14:36.491Z,71.51
2023-04-21T15:20:08.297Z,71.36
2023-04-21T15:25:40.396Z,71.52
2023-04-21T15:31:11.778Z,70.82
2023-04-21T15:36:43.432Z,70.7
2023-04-21T15:42:15.520Z,71.45
2023-04-21T15:47:46.882Z,73.61
2023-04-21T15:53:20.762Z,73.19
2023-04-21T15:58:50.234Z,70.52
2023-04-21T16:04:22.351Z,71.31
2023-04-21T16:10:00.325Z,71.84
2023-04-21T16:15:31.882Z,72.21
2023-04-21T16:21:03.622Z,73.02
2023-04-21T16:26:35.322Z,72.8
2023-04-21T16:32:07.139Z,74.29
2023-04-21T16:37:38.752Z,75.18
2023-04-21T16:43:10.413Z,75.21
2023-04-21T16:48:43.082Z,76.06
2023-04-21T16:54:13.886Z,77.22
2023-04-21T16:59:45.618Z,78.95
2023-04-21T17:05:17.335Z,78.7
2023-04-21T17:10:55.468Z,79.73
2023-04-21T17:16:27.344Z,80.42
2023-04-21T17:21:59.550Z,79.85
2023-04-21T17:27:31.199Z,80.38
2023-04-21T17:33:17.439Z,81.22
2023-04-21T17:38:34.066Z,79.57
2023-04-21T17:44:05.776Z,80.66
2023-04-21T17:49:37.693Z,77.79
2023-04-21T17:55:09.705Z,76.31
2023-04-21T18:00:40.955Z,76.83
2023-04-21T18:06:12.752Z,78.86
2023-04-21T18:11:49.189Z,81.33
2023-04-21T18:17:20.720Z,82.51
2023-04-21T18:22:54.374Z,84.12
2023-04-21T18:28:23.926Z,84.97
2023-04-21T18:33:55.646Z,85.68
2023-04-21T18:39:27.442Z,86.25
2023-04-21T18:45:01.518Z,87.03
2023-04-21T18:50:31.141Z,87.83
2023-04-21T18:56:02.594Z,87.69
2023-04-21T19:01:34.634Z,88.09
2023-04-21T19:07:06.048Z,89.62
2023-04-21T19:12:42.070Z,89.09
2023-04-21T19:18:14.081Z,89.43
2023-04-21T19:23:45.597Z,89.83
2023-04-21T19:29:17.363Z,87.49
2023-04-21T19:34:48.964Z,86.19
2023-04-21T19:40:20.733Z,84.24
2023-04-21T19:45:52.584Z,82.39
2023-04-21T19:51:24.245Z,81.17
2023-04-21T19:56:56.038Z,79.52
2023-04-21T20:02:28.302Z,79.77
2023-04-21T20:07:59.338Z,81.75
2023-04-21T20:13:37.626Z,82.28
2023-04-21T20:19:09.318Z,79.96
2023-04-21T20:24:40.809Z,82.8
2023-04-21T20:30:12.723Z,83.09
2023-04-21T20:35:44.458Z,79.81
2023-04-21T20:41:16.153Z,79.17
2023-04-21T20:46:48.034Z,78.33
2023-04-21T20:52:19.480Z,78.5
2023-04-21T20:57:51.210Z,77.43
2023-04-21T21:03:24.051Z,78.29
2023-04-21T21:08:54.651Z,77.58
2023-04-21T21:14:32.825Z,78.56
2023-04-21T21:20:04.639Z,79.22
2023-04-21T21:25:36.282Z,77.82
2023-04-21T21:31:08.136Z,79.04
2023-04-21T21:36:40.062Z,80.19
2023-04-21T21:42:11.739Z,80.5
2023-04-21T21:47:46.055Z,81.79
2023-04-21T21:53:14.993Z,84.29
2023-04-21T21:58:47.352Z,84.12
2023-04-21T22:04:18.484Z,84.55
2023-04-21T22:09:50.127Z,88.21
2023-04-21T22:15:26.198Z,88.46
2023-04-21T22:20:58.261Z,87.4
2023-04-21T22:26:29.694Z,87.15
2023-04-21T22:32:01.496Z,87.68
2023-04-21T22:37:33.109Z,88.33
2023-04-21T22:43:04.827Z,87.52
2023-04-21T22:48:36.758Z,87.92
2023-04-21T22:54:08.276Z,88.44
2023-04-21T22:59:40.534Z,88.05
2023-04-21T23:05:11.728Z,87.67
2023-04-21T23:10:43.411Z,86.75
2023-04-21T23:16:19.666Z,83.51
2023-04-21T23:21:51.258Z,82.9
2023-04-21T23:27:22.999Z,82.4
2023-04-21T23:32:54.840Z,81.73
2023-04-21T23:38:26.424Z,83.58
2023-04-21T23:43:58.135Z,85.0
2023-04-21T23:49:30.073Z,85.18
2023-04-21T23:55:01.718Z,86.0
